sensor_id;sensor_type;location;lat;lon;timestamp;pressure;altitude;pressure_sealevel;temperature;humidity
69405;BME280;57084;52.046;5.632;2022-11-15T00:00:00;100780;;;9.0;69.3
69405;BME280;57084;52.046;5.632;2022-11-15T00:01:00;100780;;;9.0;69.2
69405;BME280;57084;52.046;5.632;2022-11-15T00:02:00;100780;;;9.0;69.2
69405;BME280;57084;52.046;5.632;2022-11-15T00:03:00;100780;;;9.0;69.4
69405;BME280;57084;52.046;5.632;2022-11-15T00:04:00;100780;;;9.0;69.4
69405;BME280;57084;52.046;5.632;2022-11-15T00:05:00;100780;;;9.0;69.3
69405;BME280;57084;52.046;5.632;2022-11-15T00:06:01;100780;;;9.0;69.3
69405;BME280;57084;52.046;5.632;2022-11-15T00:07:00;100780;;;9.0;69.4
69405;BME280;57084;52.046;5.632;2022-11-15T00:08:00;100780;;;9.0;69.4
69405;BME280;57084;52.046;5.632;2022-11-15T00:09:00;100770;;;9.0;69.5
69405;BME280;57084;52.046;5.632;2022-11-15T00:10:00;100770;;;9.0;69.5
69405;BME280;57084;52.046;5.632;2022-11-15T00:11:00;100770;;;9.0;69.4
69405;BME280;57084;52.046;5.632;2022-11-15T00:12:00;100770;;;9.0;69.4
69405;BME280;57084;52.046;5.632;2022-11-15T00:13:00;100770;;;9.0;69.6
69405;BME280;57084;52.046;5.632;2022-11-15T00:14:00;100770;;;9.0;69.6
69405;BME280;57084;52.046;5.632;2022-11-15T00:15:00;100770;;;9.0;69.5
69405;BME280;57084;52.046;5.632;2022-11-15T00:16:00;100770;;;9.0;69.5
69405;BME280;57084;52.046;5.632;2022-11-15T00:17:00;100770;;;9.0;69.6
69405;BME280;57084;52.046;5.632;2022-11-15T00:18:00;100770;;;9.0;69.6
69405;BME280;57084;52.046;5.632;2022-11-15T00:19:00;100770;;;9.0;69.7
69405;BME280;57084;52.046;5.632;2022-11-15T00:20:00;100770;;;9.0;69.7
69405;BME280;57084;52.046;5.632;2022-11-15T00:21:03;100770;;;9.0;69.6
69405;BME280;57084;52.046;5.632;2022-11-15T00:22:00;100770;;;9.0;69.6
69405;BME280;57084;52.046;5.632;2022-11-15T00:23:00;100770;;;9.0;69.8
69405;BME280;57084;52.046;5.632;2022-11-15T00:24:00;100770;;;9.0;69.8
69405;BME280;57084;52.046;5.632;2022-11-15T00:25:00;100760;;;9.0;69.8
69405;BME280;57084;52.046;5.632;2022-11-15T00:26:00;100760;;;9.0;69.8
69405;BME280;57084;52.046;5.632;2022-11-15T00:27:00;100760;;;9.0;69.7
69405;BME280;57084;52.046;5.632;2022-11-15T00:28:00;100760;;;9.0;69.7
69405;BME280;57084;52.046;5.632;2022-11-15T00:29:00;100760;;;9.0;69.9
69405;BME280;57084;52.046;5.632;2022-11-15T00:30:00;100760;;;9.0;69.9
69405;BME280;57084;52.046;5.632;2022-11-15T00:31:00;100760;;;9.0;69.8
69405;BME280;57084;52.046;5.632;2022-11-15T00:32:00;100760;;;9.0;69.8
69405;BME280;57084;52.046;5.632;2022-11-15T00:33:01;100750;;;9.0;70.0
69405;BME280;57084;52.046;5.632;2022-11-15T00:34:00;100750;;;9.0;70.0
69405;BME280;57084;52.046;5.632;2022-11-15T00:35:00;100750;;;9.1;69.9
69405;BME280;57084;52.046;5.632;2022-11-15T00:36:00;100750;;;9.1;69.9
69405;BME280;57084;52.046;5.632;2022-11-15T00:37:00;100750;;;9.1;69.8
69405;BME280;57084;52.046;5.632;2022-11-15T00:38:00;100750;;;9.1;69.8
69405;BME280;57084;52.046;5.632;2022-11-15T00:39:00;100750;;;9.1;70.0
69405;BME280;57084;52.046;5.632;2022-11-15T00:40:00;100750;;;9.1;70.0
69405;BME280;57084;52.046;5.632;2022-11-15T00:41:00;100760;;;9.1;70.0
69405;BME280;57084;52.046;5.632;2022-11-15T00:42:00;100760;;;9.1;70.0
69405;BME280;57084;52.046;5.632;2022-11-15T00:43:00;100750;;;9.1;70.1
69405;BME280;57084;52.046;5.632;2022-11-15T00:44:00;100750;;;9.1;70.1
69405;BME280;57084;52.046;5.632;2022-11-15T00:45:00;100760;;;9.1;70.1
69405;BME280;57084;52.046;5.632;2022-11-15T00:46:00;100760;;;9.1;70.1
69405;BME280;57084;52.046;5.632;2022-11-15T00:47:00;100760;;;9.1;70.0
69405;BME280;57084;52.046;5.632;2022-11-15T00:48:00;100760;;;9.1;70.0
69405;BME280;57084;52.046;5.632;2022-11-15T00:49:00;100760;;;9.1;70.2
69405;BME280;57084;52.046;5.632;2022-11-15T00:50:00;100760;;;9.1;70.2
69405;BME280;57084;52.046;5.632;2022-11-15T00:51:00;100760;;;9.1;70.2
69405;BME280;57084;52.046;5.632;2022-11-15T00:52:00;100760;;;9.1;70.2
69405;BME280;57084;52.046;5.632;2022-11-15T00:53:00;100760;;;9.1;70.4
69405;BME280;57084;52.046;5.632;2022-11-15T00:54:00;100760;;;9.1;70.4
69405;BME280;57084;52.046;5.632;2022-11-15T00:55:00;100760;;;9.1;70.3
69405;BME280;57084;52.046;5.632;2022-11-15T00:56:00;100760;;;9.1;70.3
69405;BME280;57084;52.046;5.632;2022-11-15T00:57:00;100750;;;9.1;70.3
69405;BME280;57084;52.046;5.632;2022-11-15T00:58:00;100750;;;9.1;70.3
69405;BME280;57084;52.046;5.632;2022-11-15T00:59:00;100760;;;9.1;70.5
69405;BME280;57084;52.046;5.632;2022-11-15T01:00:00;100760;;;9.1;70.5
69405;BME280;57084;52.046;5.632;2022-11-15T01:01:08;100750;;;9.1;70.4
69405;BME280;57084;52.046;5.632;2022-11-15T01:02:00;100750;;;9.1;70.4
69405;BME280;57084;52.046;5.632;2022-11-15T01:03:00;100750;;;9.1;70.6
69405;BME280;57084;52.046;5.632;2022-11-15T01:04:00;100750;;;9.1;70.6
69405;BME280;57084;52.046;5.632;2022-11-15T01:05:00;100750;;;9.1;70.5
69405;BME280;57084;52.046;5.632;2022-11-15T01:06:00;100750;;;9.1;70.5
69405;BME280;57084;52.046;5.632;2022-11-15T01:07:00;100750;;;9.1;70.5
69405;BME280;57084;52.046;5.632;2022-11-15T01:08:00;100750;;;9.1;70.5
69405;BME280;57084;52.046;5.632;2022-11-15T01:09:00;100740;;;9.1;70.7
69405;BME280;57084;52.046;5.632;2022-11-15T01:10:00;100740;;;9.1;70.7
69405;BME280;57084;52.046;5.632;2022-11-15T01:11:00;100740;;;9.1;70.6
69405;BME280;57084;52.046;5.632;2022-11-15T01:12:00;100740;;;9.1;70.6
69405;BME280;57084;52.046;5.632;2022-11-15T01:13:00;100740;;;9.2;70.8
69405;BME280;57084;52.046;5.632;2022-11-15T01:14:00;100740;;;9.2;70.8
69405;BME280;57084;52.046;5.632;2022-11-15T01:15:00;100740;;;9.2;70.8
69405;BME280;57084;52.046;5.632;2022-11-15T01:16:05;100740;;;9.2;70.8
69405;BME280;57084;52.046;5.632;2022-11-15T01:17:00;100740;;;9.2;70.7
69405;BME280;57084;52.046;5.632;2022-11-15T01:18:00;100740;;;9.2;70.7
69405;BME280;57084;52.046;5.632;2022-11-15T01:19:00;100740;;;9.2;70.9
69405;BME280;57084;52.046;5.632;2022-11-15T01:20:00;100740;;;9.2;70.9
69405;BME280;57084;52.046;5.632;2022-11-15T01:21:04;100730;;;9.2;70.8
69405;BME280;57084;52.046;5.632;2022-11-15T01:22:00;100730;;;9.2;70.8
69405;BME280;57084;52.046;5.632;2022-11-15T01:23:00;100730;;;9.2;71.0
69405;BME280;57084;52.046;5.632;2022-11-15T01:24:00;100730;;;9.2;71.0
69405;BME280;57084;52.046;5.632;2022-11-15T01:25:00;100730;;;9.2;70.9
69405;BME280;57084;52.046;5.632;2022-11-15T01:26:00;100730;;;9.2;70.9
69405;BME280;57084;52.046;5.632;2022-11-15T01:27:00;100720;;;9.2;70.9
69405;BME280;57084;52.046;5.632;2022-11-15T01:28:00;100720;;;9.2;70.9
69405;BME280;57084;52.046;5.632;2022-11-15T01:29:00;100720;;;9.2;71.1
69405;BME280;57084;52.046;5.632;2022-11-15T01:30:00;100720;;;9.2;71.1
69405;BME280;57084;52.046;5.632;2022-11-15T01:31:00;100720;;;9.2;71.0
69405;BME280;57084;52.046;5.632;2022-11-15T01:32:00;100720;;;9.2;71.0
69405;BME280;57084;52.046;5.632;2022-11-15T01:33:00;100720;;;9.2;71.1
69405;BME280;57084;52.046;5.632;2022-11-15T01:34:00;100720;;;9.2;71.1
69405;BME280;57084;52.046;5.632;2022-11-15T01:35:00;100710;;;9.2;71.1
69405;BME280;57084;52.046;5.632;2022-11-15T01:36:02;100710;;;9.2;71.1
69405;BME280;57084;52.046;5.632;2022-11-15T01:37:00;100720;;;9.2;71.0
69405;BME280;57084;52.046;5.632;2022-11-15T01:38:00;100720;;;9.2;71.0
69405;BME280;57084;52.046;5.632;2022-11-15T01:39:00;100710;;;9.2;71.2
69405;BME280;57084;52.046;5.632;2022-11-15T01:40:00;100710;;;9.2;71.2
69405;BME280;57084;52.046;5.632;2022-11-15T01:41:00;100710;;;9.3;71.1
69405;BME280;57084;52.046;5.632;2022-11-15T01:42:00;100710;;;9.3;71.1
69405;BME280;57084;52.046;5.632;2022-11-15T01:43:17;100710;;;9.3;71.2
69405;BME280;57084;52.046;5.632;2022-11-15T01:44:31;100710;;;9.3;71.2
69405;BME280;57084;52.046;5.632;2022-11-15T01:45:00;100700;;;9.3;71.2
69405;BME280;57084;52.046;5.632;2022-11-15T01:46:01;100700;;;9.3;71.2
69405;BME280;57084;52.046;5.632;2022-11-15T01:47:00;100710;;;9.3;71.2
69405;BME280;57084;52.046;5.632;2022-11-15T01:48:00;100710;;;9.3;71.2
69405;BME280;57084;52.046;5.632;2022-11-15T01:49:00;100700;;;9.3;71.4
69405;BME280;57084;52.046;5.632;2022-11-15T01:50:00;100700;;;9.3;71.4
69405;BME280;57084;52.046;5.632;2022-11-15T01:51:00;100710;;;9.3;71.3
69405;BME280;57084;52.046;5.632;2022-11-15T01:52:00;100710;;;9.3;71.3
69405;BME280;57084;52.046;5.632;2022-11-15T01:53:00;100700;;;9.3;71.5
69405;BME280;57084;52.046;5.632;2022-11-15T01:54:00;100700;;;9.3;71.5
69405;BME280;57084;52.046;5.632;2022-11-15T01:55:02;100710;;;9.3;71.5
69405;BME280;57084;52.046;5.632;2022-11-15T01:56:00;100710;;;9.3;71.5
69405;BME280;57084;52.046;5.632;2022-11-15T01:57:01;100710;;;9.3;71.4
69405;BME280;57084;52.046;5.632;2022-11-15T01:58:01;100710;;;9.3;71.4
69405;BME280;57084;52.046;5.632;2022-11-15T01:59:00;100700;;;9.3;71.6
69405;BME280;57084;52.046;5.632;2022-11-15T02:00:00;100700;;;9.3;71.6
69405;BME280;57084;52.046;5.632;2022-11-15T02:01:00;100700;;;9.3;71.5
69405;BME280;57084;52.046;5.632;2022-11-15T02:02:00;100700;;;9.3;71.5
69405;BME280;57084;52.046;5.632;2022-11-15T02:03:00;100700;;;9.4;71.6
69405;BME280;57084;52.046;5.632;2022-11-15T02:04:00;100700;;;9.4;71.6
69405;BME280;57084;52.046;5.632;2022-11-15T02:05:00;100700;;;9.4;71.7
69405;BME280;57084;52.046;5.632;2022-11-15T02:06:00;100700;;;9.4;71.7
69405;BME280;57084;52.046;5.632;2022-11-15T02:07:00;100700;;;9.4;71.6
69405;BME280;57084;52.046;5.632;2022-11-15T02:08:00;100700;;;9.4;71.6
69405;BME280;57084;52.046;5.632;2022-11-15T02:09:00;100690;;;9.4;71.8
69405;BME280;57084;52.046;5.632;2022-11-15T02:10:01;100690;;;9.4;71.8
69405;BME280;57084;52.046;5.632;2022-11-15T02:11:00;100690;;;9.4;71.8
69405;BME280;57084;52.046;5.632;2022-11-15T02:12:00;100690;;;9.4;71.8
69405;BME280;57084;52.046;5.632;2022-11-15T02:13:00;100690;;;9.4;71.8
69405;BME280;57084;52.046;5.632;2022-11-15T02:14:00;100690;;;9.4;71.8
69405;BME280;57084;52.046;5.632;2022-11-15T02:15:00;100690;;;9.4;71.9
69405;BME280;57084;52.046;5.632;2022-11-15T02:16:04;100690;;;9.4;71.9
69405;BME280;57084;52.046;5.632;2022-11-15T02:17:02;100690;;;9.4;71.8
69405;BME280;57084;52.046;5.632;2022-11-15T02:18:04;100690;;;9.4;71.8
69405;BME280;57084;52.046;5.632;2022-11-15T02:19:01;100680;;;9.4;72.0
69405;BME280;57084;52.046;5.632;2022-11-15T02:21:06;100680;;;9.4;72.0
69405;BME280;57084;52.046;5.632;2022-11-15T02:22:02;100680;;;9.4;72.0
69405;BME280;57084;52.046;5.632;2022-11-15T02:23:05;100680;;;9.5;72.0
69405;BME280;57084;52.046;5.632;2022-11-15T02:24:06;100680;;;9.5;72.0
69405;BME280;57084;52.046;5.632;2022-11-15T02:25:01;100680;;;9.5;72.1
69405;BME280;57084;52.046;5.632;2022-11-15T02:26:05;100680;;;9.5;72.1
69405;BME280;57084;52.046;5.632;2022-11-15T02:28:16;100680;;;9.5;72.1
69405;BME280;57084;52.046;5.632;2022-11-15T02:29:01;100680;;;9.5;72.3
69405;BME280;57084;52.046;5.632;2022-11-15T02:31:00;100670;;;9.5;72.2
69405;BME280;57084;52.046;5.632;2022-11-15T02:32:01;100670;;;9.5;72.2
69405;BME280;57084;52.046;5.632;2022-11-15T02:33:00;100670;;;9.5;72.1
69405;BME280;57084;52.046;5.632;2022-11-15T02:34:01;100670;;;9.5;72.1
69405;BME280;57084;52.046;5.632;2022-11-15T02:35:02;100670;;;9.5;72.4
69405;BME280;57084;52.046;5.632;2022-11-15T02:36:00;100670;;;9.5;72.4
69405;BME280;57084;52.046;5.632;2022-11-15T02:37:01;100660;;;9.5;72.3
69405;BME280;57084;52.046;5.632;2022-11-15T02:38:02;100660;;;9.5;72.3
69405;BME280;57084;52.046;5.632;2022-11-15T02:39:02;100660;;;9.5;72.5
69405;BME280;57084;52.046;5.632;2022-11-15T02:40:01;100660;;;9.5;72.5
69405;BME280;57084;52.046;5.632;2022-11-15T02:41:01;100660;;;9.5;72.5
69405;BME280;57084;52.046;5.632;2022-11-15T02:42:00;100660;;;9.5;72.5
69405;BME280;57084;52.046;5.632;2022-11-15T02:43:01;100660;;;9.6;72.4
69405;BME280;57084;52.046;5.632;2022-11-15T02:44:00;100660;;;9.6;72.4
69405;BME280;57084;52.046;5.632;2022-11-15T02:45:00;100650;;;9.6;72.6
69405;BME280;57084;52.046;5.632;2022-11-15T02:46:01;100650;;;9.6;72.6
69405;BME280;57084;52.046;5.632;2022-11-15T02:47:00;100650;;;9.6;72.5
69405;BME280;57084;52.046;5.632;2022-11-15T02:48:00;100650;;;9.6;72.5
69405;BME280;57084;52.046;5.632;2022-11-15T02:49:00;100650;;;9.6;72.7
69405;BME280;57084;52.046;5.632;2022-11-15T02:50:00;100650;;;9.6;72.7
69405;BME280;57084;52.046;5.632;2022-11-15T02:51:00;100650;;;9.6;72.7
69405;BME280;57084;52.046;5.632;2022-11-15T02:52:00;100650;;;9.6;72.7
69405;BME280;57084;52.046;5.632;2022-11-15T02:53:00;100650;;;9.6;72.6
69405;BME280;57084;52.046;5.632;2022-11-15T02:54:00;100650;;;9.6;72.6
69405;BME280;57084;52.046;5.632;2022-11-15T02:55:00;100650;;;9.6;72.8
69405;BME280;57084;52.046;5.632;2022-11-15T02:56:00;100650;;;9.6;72.8
69405;BME280;57084;52.046;5.632;2022-11-15T02:57:00;100640;;;9.6;72.8
69405;BME280;57084;52.046;5.632;2022-11-15T02:58:05;100640;;;9.6;72.8
69405;BME280;57084;52.046;5.632;2022-11-15T02:59:03;100640;;;9.6;73.0
69405;BME280;57084;52.046;5.632;2022-11-15T03:00:02;100640;;;9.6;73.0
69405;BME280;57084;52.046;5.632;2022-11-15T03:01:00;100630;;;9.6;73.0
69405;BME280;57084;52.046;5.632;2022-11-15T03:02:04;100630;;;9.6;73.0
69405;BME280;57084;52.046;5.632;2022-11-15T03:03:05;100630;;;9.6;72.8
69405;BME280;57084;52.046;5.632;2022-11-15T03:04:02;100630;;;9.6;72.8
69405;BME280;57084;52.046;5.632;2022-11-15T03:05:01;100630;;;9.6;73.0
69405;BME280;57084;52.046;5.632;2022-11-15T03:06:02;100630;;;9.6;73.0
69405;BME280;57084;52.046;5.632;2022-11-15T03:07:02;100630;;;9.7;73.0
69405;BME280;57084;52.046;5.632;2022-11-15T03:08:01;100630;;;9.7;73.0
69405;BME280;57084;52.046;5.632;2022-11-15T03:09:02;100630;;;9.7;73.1
69405;BME280;57084;52.046;5.632;2022-11-15T03:10:02;100630;;;9.7;73.1
69405;BME280;57084;52.046;5.632;2022-11-15T03:11:03;100620;;;9.7;73.1
69405;BME280;57084;52.046;5.632;2022-11-15T03:12:01;100620;;;9.7;73.1
69405;BME280;57084;52.046;5.632;2022-11-15T03:13:02;100620;;;9.7;73.0
69405;BME280;57084;52.046;5.632;2022-11-15T03:14:01;100620;;;9.7;73.0
69405;BME280;57084;52.046;5.632;2022-11-15T03:15:00;100620;;;9.7;73.3
69405;BME280;57084;52.046;5.632;2022-11-15T03:16:02;100620;;;9.7;73.3
69405;BME280;57084;52.046;5.632;2022-11-15T03:17:02;100610;;;9.7;73.2
69405;BME280;57084;52.046;5.632;2022-11-15T03:18:00;100610;;;9.7;73.2
69405;BME280;57084;52.046;5.632;2022-11-15T03:19:00;100620;;;9.7;73.4
69405;BME280;57084;52.046;5.632;2022-11-15T03:20:00;100620;;;9.7;73.4
69405;BME280;57084;52.046;5.632;2022-11-15T03:21:00;100610;;;9.7;73.4
69405;BME280;57084;52.046;5.632;2022-11-15T03:22:00;100610;;;9.7;73.4
69405;BME280;57084;52.046;5.632;2022-11-15T03:23:00;100620;;;9.7;73.3
69405;BME280;57084;52.046;5.632;2022-11-15T03:24:00;100620;;;9.7;73.3
69405;BME280;57084;52.046;5.632;2022-11-15T03:25:00;100620;;;9.8;73.5
69405;BME280;57084;52.046;5.632;2022-11-15T03:26:00;100620;;;9.8;73.5
69405;BME280;57084;52.046;5.632;2022-11-15T03:27:00;100620;;;9.8;73.4
69405;BME280;57084;52.046;5.632;2022-11-15T03:28:01;100620;;;9.8;73.4
69405;BME280;57084;52.046;5.632;2022-11-15T03:29:01;100620;;;9.8;73.6
69405;BME280;57084;52.046;5.632;2022-11-15T03:30:00;100620;;;9.8;73.6
69405;BME280;57084;52.046;5.632;2022-11-15T03:31:00;100620;;;9.8;73.6
69405;BME280;57084;52.046;5.632;2022-11-15T03:32:00;100620;;;9.8;73.6
69405;BME280;57084;52.046;5.632;2022-11-15T03:33:00;100620;;;9.8;73.5
69405;BME280;57084;52.046;5.632;2022-11-15T03:34:00;100620;;;9.8;73.5
69405;BME280;57084;52.046;5.632;2022-11-15T03:35:00;100630;;;9.8;73.7
69405;BME280;57084;52.046;5.632;2022-11-15T03:36:00;100630;;;9.8;73.7
69405;BME280;57084;52.046;5.632;2022-11-15T03:37:00;100630;;;9.9;73.7
69405;BME280;57084;52.046;5.632;2022-11-15T03:38:00;100630;;;9.9;73.7
69405;BME280;57084;52.046;5.632;2022-11-15T03:39:00;100640;;;9.9;73.8
69405;BME280;57084;52.046;5.632;2022-11-15T03:40:00;100640;;;9.9;73.8
69405;BME280;57084;52.046;5.632;2022-11-15T03:41:00;100640;;;9.9;73.8
69405;BME280;57084;52.046;5.632;2022-11-15T03:42:04;100640;;;9.9;73.8
69405;BME280;57084;52.046;5.632;2022-11-15T03:43:00;100640;;;9.9;73.7
69405;BME280;57084;52.046;5.632;2022-11-15T03:44:02;100640;;;9.9;73.7
69405;BME280;57084;52.046;5.632;2022-11-15T03:45:01;100640;;;9.9;74.0
69405;BME280;57084;52.046;5.632;2022-11-15T03:46:01;100640;;;9.9;74.0
69405;BME280;57084;52.046;5.632;2022-11-15T03:47:01;100640;;;9.9;73.9
69405;BME280;57084;52.046;5.632;2022-11-15T03:48:01;100640;;;9.9;73.9
69405;BME280;57084;52.046;5.632;2022-11-15T03:49:02;100640;;;9.9;74.1
69405;BME280;57084;52.046;5.632;2022-11-15T03:50:01;100640;;;9.9;74.1
69405;BME280;57084;52.046;5.632;2022-11-15T03:51:00;100640;;;9.9;74.1
69405;BME280;57084;52.046;5.632;2022-11-15T03:52:00;100640;;;9.9;74.1
69405;BME280;57084;52.046;5.632;2022-11-15T03:53:00;100640;;;9.9;74.0
69405;BME280;57084;52.046;5.632;2022-11-15T03:54:01;100640;;;9.9;74.0
69405;BME280;57084;52.046;5.632;2022-11-15T03:55:00;100640;;;9.9;74.2
69405;BME280;57084;52.046;5.632;2022-11-15T03:56:00;100640;;;9.9;74.2
69405;BME280;57084;52.046;5.632;2022-11-15T03:57:00;100640;;;10.0;74.2
69405;BME280;57084;52.046;5.632;2022-11-15T03:58:00;100640;;;10.0;74.2
69405;BME280;57084;52.046;5.632;2022-11-15T03:59:00;100640;;;10.0;74.3
69405;BME280;57084;52.046;5.632;2022-11-15T04:00:00;100640;;;10.0;74.3
69405;BME280;57084;52.046;5.632;2022-11-15T04:01:00;100640;;;10.0;74.3
69405;BME280;57084;52.046;5.632;2022-11-15T04:02:00;100640;;;10.0;74.3
69405;BME280;57084;52.046;5.632;2022-11-15T04:03:00;100630;;;10.0;74.2
69405;BME280;57084;52.046;5.632;2022-11-15T04:04:00;100630;;;10.0;74.2
69405;BME280;57084;52.046;5.632;2022-11-15T04:05:00;100630;;;10.0;74.4
69405;BME280;57084;52.046;5.632;2022-11-15T04:06:00;100630;;;10.0;74.4
69405;BME280;57084;52.046;5.632;2022-11-15T04:07:00;100630;;;10.0;74.4
69405;BME280;57084;52.046;5.632;2022-11-15T04:08:00;100630;;;10.0;74.4
69405;BME280;57084;52.046;5.632;2022-11-15T04:09:00;100630;;;10.1;74.4
69405;BME280;57084;52.046;5.632;2022-11-15T04:10:00;100630;;;10.1;74.4
69405;BME280;57084;52.046;5.632;2022-11-15T04:11:00;100630;;;10.1;74.5
69405;BME280;57084;52.046;5.632;2022-11-15T04:12:00;100630;;;10.1;74.5
69405;BME280;57084;52.046;5.632;2022-11-15T04:13:01;100630;;;10.1;74.4
69405;BME280;57084;52.046;5.632;2022-11-15T04:14:00;100630;;;10.1;74.4
69405;BME280;57084;52.046;5.632;2022-11-15T04:15:00;100630;;;10.1;74.6
69405;BME280;57084;52.046;5.632;2022-11-15T04:16:00;100630;;;10.1;74.6
69405;BME280;57084;52.046;5.632;2022-11-15T04:17:00;100630;;;10.1;74.6
69405;BME280;57084;52.046;5.632;2022-11-15T04:18:00;100630;;;10.1;74.6
69405;BME280;57084;52.046;5.632;2022-11-15T04:19:00;100630;;;10.1;74.6
69405;BME280;57084;52.046;5.632;2022-11-15T04:20:00;100630;;;10.1;74.6
69405;BME280;57084;52.046;5.632;2022-11-15T04:21:00;100630;;;10.1;74.7
69405;BME280;57084;52.046;5.632;2022-11-15T04:22:00;100630;;;10.1;74.7
69405;BME280;57084;52.046;5.632;2022-11-15T04:23:00;100620;;;10.1;74.6
69405;BME280;57084;52.046;5.632;2022-11-15T04:24:00;100620;;;10.1;74.6
69405;BME280;57084;52.046;5.632;2022-11-15T04:25:00;100620;;;10.1;74.9
69405;BME280;57084;52.046;5.632;2022-11-15T04:26:00;100620;;;10.1;74.9
69405;BME280;57084;52.046;5.632;2022-11-15T04:27:00;100610;;;10.1;74.8
69405;BME280;57084;52.046;5.632;2022-11-15T04:28:00;100610;;;10.1;74.8
69405;BME280;57084;52.046;5.632;2022-11-15T04:29:00;100620;;;10.2;74.8
69405;BME280;57084;52.046;5.632;2022-11-15T04:30:00;100620;;;10.2;74.8
69405;BME280;57084;52.046;5.632;2022-11-15T04:31:00;100610;;;10.2;75.0
69405;BME280;57084;52.046;5.632;2022-11-15T04:32:00;100610;;;10.2;75.0
69405;BME280;57084;52.046;5.632;2022-11-15T04:33:00;100610;;;10.2;74.9
69405;BME280;57084;52.046;5.632;2022-11-15T04:34:00;100610;;;10.2;74.9
69405;BME280;57084;52.046;5.632;2022-11-15T04:35:00;100610;;;10.2;75.1
69405;BME280;57084;52.046;5.632;2022-11-15T04:36:00;100610;;;10.2;75.1
69405;BME280;57084;52.046;5.632;2022-11-15T04:37:00;100610;;;10.2;75.0
69405;BME280;57084;52.046;5.632;2022-11-15T04:38:00;100610;;;10.2;75.0
69405;BME280;57084;52.046;5.632;2022-11-15T04:39:00;100610;;;10.2;74.9
69405;BME280;57084;52.046;5.632;2022-11-15T04:40:00;100610;;;10.2;74.9
69405;BME280;57084;52.046;5.632;2022-11-15T04:41:00;100620;;;10.2;75.2
69405;BME280;57084;52.046;5.632;2022-11-15T04:42:00;100620;;;10.2;75.2
69405;BME280;57084;52.046;5.632;2022-11-15T04:43:00;100620;;;10.3;75.1
69405;BME280;57084;52.046;5.632;2022-11-15T04:44:00;100620;;;10.3;75.1
69405;BME280;57084;52.046;5.632;2022-11-15T04:45:00;100610;;;10.3;75.3
69405;BME280;57084;52.046;5.632;2022-11-15T04:46:00;100610;;;10.3;75.3
69405;BME280;57084;52.046;5.632;2022-11-15T04:47:00;100620;;;10.3;75.2
69405;BME280;57084;52.046;5.632;2022-11-15T04:48:00;100620;;;10.3;75.2
69405;BME280;57084;52.046;5.632;2022-11-15T04:49:00;100620;;;10.3;75.1
69405;BME280;57084;52.046;5.632;2022-11-15T04:50:00;100620;;;10.3;75.1
69405;BME280;57084;52.046;5.632;2022-11-15T04:51:00;100610;;;10.3;75.4
69405;BME280;57084;52.046;5.632;2022-11-15T04:52:00;100610;;;10.3;75.4
69405;BME280;57084;52.046;5.632;2022-11-15T04:53:00;100620;;;10.3;75.3
69405;BME280;57084;52.046;5.632;2022-11-15T04:54:00;100620;;;10.3;75.3
69405;BME280;57084;52.046;5.632;2022-11-15T04:55:00;100620;;;10.3;75.5
69405;BME280;57084;52.046;5.632;2022-11-15T04:56:00;100620;;;10.3;75.5
69405;BME280;57084;52.046;5.632;2022-11-15T04:57:00;100610;;;10.3;75.4
69405;BME280;57084;52.046;5.632;2022-11-15T04:58:00;100610;;;10.3;75.4
69405;BME280;57084;52.046;5.632;2022-11-15T04:59:00;100620;;;10.4;75.3
69405;BME280;57084;52.046;5.632;2022-11-15T05:00:00;100620;;;10.4;75.3
69405;BME280;57084;52.046;5.632;2022-11-15T05:01:05;100610;;;10.4;75.6
69405;BME280;57084;52.046;5.632;2022-11-15T05:02:00;100610;;;10.4;75.6
69405;BME280;57084;52.046;5.632;2022-11-15T05:03:00;100620;;;10.4;75.5
69405;BME280;57084;52.046;5.632;2022-11-15T05:04:00;100620;;;10.4;75.5
69405;BME280;57084;52.046;5.632;2022-11-15T05:05:00;100620;;;10.4;75.7
69405;BME280;57084;52.046;5.632;2022-11-15T05:06:00;100620;;;10.4;75.7
69405;BME280;57084;52.046;5.632;2022-11-15T05:07:00;100620;;;10.4;75.7
69405;BME280;57084;52.046;5.632;2022-11-15T05:08:00;100620;;;10.4;75.7
69405;BME280;57084;52.046;5.632;2022-11-15T05:09:00;100620;;;10.4;75.6
69405;BME280;57084;52.046;5.632;2022-11-15T05:10:00;100620;;;10.4;75.6
69405;BME280;57084;52.046;5.632;2022-11-15T05:11:00;100620;;;10.4;75.8
69405;BME280;57084;52.046;5.632;2022-11-15T05:12:00;100620;;;10.4;75.8
69405;BME280;57084;52.046;5.632;2022-11-15T05:13:00;100620;;;10.4;75.7
69405;BME280;57084;52.046;5.632;2022-11-15T05:14:00;100620;;;10.4;75.7
69405;BME280;57084;52.046;5.632;2022-11-15T05:15:00;100620;;;10.4;75.9
69405;BME280;57084;52.046;5.632;2022-11-15T05:16:00;100620;;;10.4;75.9
69405;BME280;57084;52.046;5.632;2022-11-15T05:17:00;100620;;;10.4;75.9
69405;BME280;57084;52.046;5.632;2022-11-15T05:18:00;100620;;;10.4;75.9
69405;BME280;57084;52.046;5.632;2022-11-15T05:19:00;100620;;;10.4;75.8
69405;BME280;57084;52.046;5.632;2022-11-15T05:20:00;100620;;;10.4;75.8
69405;BME280;57084;52.046;5.632;2022-11-15T05:21:02;100610;;;10.4;76.0
69405;BME280;57084;52.046;5.632;2022-11-15T05:22:00;100610;;;10.4;76.0
69405;BME280;57084;52.046;5.632;2022-11-15T05:23:00;100610;;;10.5;75.9
69405;BME280;57084;52.046;5.632;2022-11-15T05:24:00;100610;;;10.5;75.9
69405;BME280;57084;52.046;5.632;2022-11-15T05:25:00;100610;;;10.5;76.1
69405;BME280;57084;52.046;5.632;2022-11-15T05:26:00;100610;;;10.5;76.1
69405;BME280;57084;52.046;5.632;2022-11-15T05:27:00;100610;;;10.5;76.0
69405;BME280;57084;52.046;5.632;2022-11-15T05:28:00;100610;;;10.5;76.0
69405;BME280;57084;52.046;5.632;2022-11-15T05:29:00;100610;;;10.5;75.9
69405;BME280;57084;52.046;5.632;2022-11-15T05:30:00;100610;;;10.5;75.9
69405;BME280;57084;52.046;5.632;2022-11-15T05:31:00;100610;;;10.5;76.1
69405;BME280;57084;52.046;5.632;2022-11-15T05:32:00;100610;;;10.5;76.1
69405;BME280;57084;52.046;5.632;2022-11-15T05:33:00;100610;;;10.5;76.1
69405;BME280;57084;52.046;5.632;2022-11-15T05:34:00;100610;;;10.5;76.1
69405;BME280;57084;52.046;5.632;2022-11-15T05:35:00;100620;;;10.5;76.2
69405;BME280;57084;52.046;5.632;2022-11-15T05:36:00;100620;;;10.5;76.2
69405;BME280;57084;52.046;5.632;2022-11-15T05:37:00;100620;;;10.5;76.3
69405;BME280;57084;52.046;5.632;2022-11-15T05:38:00;100620;;;10.5;76.3
69405;BME280;57084;52.046;5.632;2022-11-15T05:39:00;100620;;;10.5;76.2
69405;BME280;57084;52.046;5.632;2022-11-15T05:40:00;100620;;;10.5;76.2
69405;BME280;57084;52.046;5.632;2022-11-15T05:41:00;100620;;;10.5;76.4